createdAt,value
2024-03-14T00:08:54.553Z,15.013422818791947
2024-03-14T00:12:19.903Z,16.355704697986578
2024-03-14T00:15:46.361Z,14.563758389261745
2024-03-14T00:20:36.287Z,16.181208053691275
2024-03-14T00:24:00.958Z,15.053691275167786
2024-03-14T00:27:41.105Z,13.832214765100671
2024-03-14T00:31:18.358Z,12.845637583892618
2024-03-14T00:35:02.391Z,10.724832214765101
2024-03-14T00:38:55.735Z,8.161073825503356
2024-03-14T00:43:15.400Z,9.295302013422818
2024-03-14T00:46:46.488Z,8.463087248322148
2024-03-14T00:50:16.300Z,8.731543624161073
2024-03-14T00:53:52.932Z,8.89261744966443
2024-03-14T00:58:40.305Z,6.315436241610739
2024-03-14T01:02:15.069Z,8.073825503355705
2024-03-14T01:05:54.853Z,5.704697986577181
2024-03-14T01:18:36.315Z,8.046979865771812
2024-03-14T01:22:24.476Z,8.275167785234899
2024-03-14T01:35:11.929Z,8.020134228187919
2024-03-14T01:40:08.804Z,6.885906040268456
2024-03-14T01:43:52.520Z,4.617449664429531
2024-03-14T01:47:41.593Z,5.785234899328859
2024-03-14T01:51:13.253Z,6.067114093959732
2024-03-14T01:56:56.145Z,3.335570469798658
2024-03-14T02:00:35.814Z,2.2885906040268456
2024-03-14T02:06:32.376Z,5.0
2024-03-14T02:10:31.748Z,3.140939597315436
2024-03-14T02:16:24.549Z,5.543624161073826
2024-03-14T02:19:57.013Z,5.469798657718121
2024-03-14T02:23:25.935Z,6.040268456375839
2024-03-14T02:26:55.948Z,4.3624161073825505
2024-03-14T02:31:49.370Z,6.516778523489933
2024-03-14T02:38:19.561Z,5.147651006711409
2024-03-14T02:44:46.147Z,4.523489932885906
2024-03-14T02:49:50.159Z,4.040268456375839
2024-03-14T02:58:09.258Z,3.1677852348993287
2024-03-14T03:01:59.652Z,2.7986577181208054
2024-03-14T03:05:27.584Z,3.476510067114094
2024-03-14T03:18:58.147Z,3.1543624161073827
2024-03-14T03:22:31.852Z,4.087248322147651
2024-03-14T03:28:06.150Z,4.738255033557047
2024-03-14T03:31:32.435Z,4.3624161073825505
2024-03-14T03:34:59.134Z,4.617449664429531
2024-03-14T03:38:26.874Z,5.530201342281879
2024-03-14T03:45:56.452Z,4.308724832214765
2024-03-14T03:53:03.570Z,6.939597315436242
2024-03-14T03:56:34.252Z,5.919463087248322
2024-03-14T04:09:44.083Z,4.02013422818792
2024-03-14T04:13:17.761Z,2.1073825503355703
2024-03-14T04:17:09.009Z,2.1879194630872485
2024-03-14T04:20:58.297Z,2.865771812080537
2024-03-14T04:24:40.947Z,3.8859060402684564
2024-03-14T04:28:22.706Z,4.181208053691275
2024-03-14T04:32:04.610Z,4.174496644295302
2024-03-14T04:36:28.319Z,4.966442953020135
2024-03-14T04:41:48.628Z,5.4630872483221475
2024-03-14T04:45:24.126Z,3.6912751677852347
2024-03-14T04:48:59.853Z,4.261744966442953
2024-03-14T04:52:33.821Z,4.375838926174497
2024-03-14T04:56:03.571Z,4.261744966442953
2024-03-14T04:59:42.004Z,3.8859060402684564
2024-03-14T05:03:12.717Z,4.2885906040268456
2024-03-14T05:06:40.353Z,6.1879194630872485
2024-03-14T05:10:15.023Z,4.302013422818792
2024-03-14T05:13:46.238Z,2.4161073825503356
2024-03-14T05:17:14.082Z,3.557046979865772
2024-03-14T05:22:26.311Z,2.7651006711409396
2024-03-14T05:26:41.039Z,4.25503355704698
2024-03-14T05:30:32.742Z,3.469798657718121
2024-03-14T05:34:16.101Z,5.033557046979865
2024-03-14T05:38:00.236Z,5.791946308724833
2024-03-14T05:41:41.747Z,4.87248322147651
2024-03-14T05:45:25.279Z,5.033557046979865
2024-03-14T05:50:55.951Z,4.932885906040268
2024-03-14T05:54:22.096Z,5.147651006711409
2024-03-14T05:58:00.830Z,4.557046979865772
2024-03-14T06:04:47.785Z,3.771812080536913
2024-03-14T06:08:12.049Z,6.469798657718121
2024-03-14T06:15:02.023Z,6.503355704697986
2024-03-14T06:18:31.834Z,5.731543624161074
2024-03-14T06:21:53.054Z,6.221476510067114
2024-03-14T06:25:48.521Z,5.322147651006712
2024-03-14T06:32:09.248Z,5.503355704697986
2024-03-14T06:35:30.911Z,5.76510067114094
2024-03-14T06:39:53.430Z,6.959731543624161
2024-03-14T06:43:20.113Z,8.14765100671141
2024-03-14T06:46:54.379Z,6.483221476510067
2024-03-14T06:50:24.035Z,6.416107382550336
2024-03-14T06:56:22.618Z,4.073825503355705
2024-03-14T06:59:48.464Z,8.228187919463087
2024-03-14T07:04:02.362Z,4.87248322147651
2024-03-14T07:10:31.073Z,6.946308724832215
2024-03-14T07:14:20.941Z,5.389261744966443
2024-03-14T07:18:19.280Z,6.644295302013423
2024-03-14T07:21:56.307Z,6.489932885906041
2024-03-14T07:25:25.101Z,7.23489932885906
2024-03-14T07:38:12.090Z,5.932885906040268
2024-03-14T07:53:38.649Z,9.073825503355705
2024-03-14T07:58:22.330Z,5.006711409395973
2024-03-14T08:01:47.280Z,6.10738255033557
2024-03-14T08:05:12.488Z,8.93288590604027
2024-03-14T08:08:38.710Z,7.899328859060403
2024-03-14T08:12:04.976Z,9.328859060402685
2024-03-14T08:15:32.523Z,7.174496644295302
2024-03-14T08:19:05.178Z,5.74496644295302
2024-03-14T08:22:49.194Z,8.100671140939598
2024-03-14T08:26:15.934Z,7.570469798657718
2024-03-14T08:32:46.218Z,6.395973154362416
2024-03-14T08:36:22.246Z,5.02013422818792
2024-03-14T08:40:01.738Z,3.053691275167785
2024-03-14T08:45:34.578Z,5.315436241610739
2024-03-14T08:49:02.498Z,5.76510067114094
2024-03-14T08:52:50.452Z,5.208053691275167
2024-03-14T09:03:10.432Z,5.953020134228188
2024-03-14T09:06:44.468Z,5.671140939597316
2024-03-14T09:10:51.083Z,6.053691275167785
2024-03-14T09:15:56.174Z,4.167785234899329
2024-03-14T09:19:50.927Z,4.12751677852349
2024-03-14T09:28:31.382Z,3.825503355704698
2024-03-14T09:32:49.261Z,5.677852348993288
2024-03-14T09:36:26.396Z,4.214765100671141
2024-03-14T09:40:06.573Z,2.557046979865772
2024-03-14T09:43:32.972Z,3.1543624161073827
2024-03-14T09:47:03.144Z,4.422818791946309
2024-03-14T09:59:24.183Z,6.798657718120805
2024-03-14T10:07:22.035Z,2.8456375838926173
2024-03-14T10:11:00.788Z,4.617449664429531
2024-03-14T10:14:29.814Z,3.51006711409396
2024-03-14T10:18:01.043Z,4.516778523489933
2024-03-14T10:21:25.633Z,4.74496644295302
2024-03-14T10:24:51.195Z,3.9328859060402683
2024-03-14T10:28:19.254Z,2.38255033557047
2024-03-14T10:31:47.591Z,3.9731543624161074
2024-03-14T10:35:16.075Z,6.201342281879195
2024-03-14T10:41:06.502Z,3.248322147651007
2024-03-14T10:44:38.033Z,5.436241610738255
2024-03-14T10:48:06.345Z,3.053691275167785
2024-03-14T10:52:31.791Z,4.583892617449664
2024-03-14T11:00:47.382Z,4.060402684563758
2024-03-14T11:04:17.254Z,3.825503355704698
2024-03-14T11:07:45.093Z,2.2684563758389262
2024-03-14T11:11:23.239Z,1.8791946308724832
2024-03-14T11:16:10.439Z,3.1543624161073827
2024-03-14T11:19:51.165Z,2.8120805369127515
2024-03-14T11:23:24.476Z,1.9597315436241611
2024-03-14T11:26:51.426Z,1.570469798657718
2024-03-14T11:30:16.561Z,3.0671140939597317
2024-03-14T11:33:44.119Z,2.51006711409396
2024-03-14T11:37:13.951Z,2.51006711409396
2024-03-14T11:40:41.347Z,2.9060402684563758
2024-03-14T11:44:07.280Z,1.6308724832214765
2024-03-14T11:47:36.275Z,2.791946308724832
2024-03-14T11:51:01.561Z,1.7986577181208054
2024-03-14T11:54:29.183Z,1.4899328859060403
2024-03-14T11:57:57.127Z,2.1812080536912752
2024-03-14T12:01:32.358Z,2.3422818791946307
2024-03-14T12:05:12.220Z,1.563758389261745
2024-03-14T12:08:38.752Z,2.9865771812080535
2024-03-14T12:12:04.711Z,1.9731543624161074
2024-03-14T12:15:30.545Z,1.9798657718120805
2024-03-14T12:18:57.741Z,1.6644295302013423
2024-03-14T12:22:25.388Z,1.174496644295302
2024-03-14T12:25:49.569Z,2.12751677852349
2024-03-14T12:34:25.513Z,1.6979865771812082
2024-03-14T12:37:52.401Z,1.7651006711409396
2024-03-14T12:47:16.929Z,2.6577181208053693
2024-03-14T12:51:02.925Z,1.3825503355704698
2024-03-14T12:54:37.577Z,1.6778523489932886
2024-03-14T12:58:08.401Z,2.8859060402684564
2024-03-14T13:01:47.899Z,1.7852348993288591
2024-03-14T13:05:16.297Z,1.3557046979865772
2024-03-14T13:12:31.270Z,1.087248322147651
2024-03-14T13:17:55.046Z,1.167785234899329
2024-03-14T13:29:12.185Z,1.1812080536912752
2024-03-14T13:32:39.245Z,2.1140939597315436
2024-03-14T13:36:19.853Z,1.6241610738255035
2024-03-14T13:39:51.046Z,3.664429530201342
2024-03-14T13:43:24.829Z,3.442953020134228
2024-03-14T13:46:50.308Z,3.1543624161073827
2024-03-14T13:50:21.711Z,1.8523489932885906
2024-03-14T13:54:05.895Z,3.8053691275167787
2024-03-14T14:07:25.290Z,2.610738255033557
2024-03-14T14:13:38.109Z,2.7114093959731544
2024-03-14T14:17:03.275Z,1.4630872483221478
2024-03-14T14:20:24.202Z,3.302013422818792
2024-03-14T14:23:45.142Z,2.9060402684563758
2024-03-14T14:27:07.307Z,2.61744966442953
2024-03-14T14:30:30.925Z,4.214765100671141
2024-03-14T14:33:53.419Z,1.8926174496644295
2024-03-14T14:37:16.438Z,2.0738255033557045
2024-03-14T14:42:44.955Z,2.4563758389261743
2024-03-14T14:46:09.081Z,1.2348993288590604
2024-03-14T14:49:30.860Z,5.624161073825503
2024-03-14T14:52:53.414Z,1.6241610738255035
2024-03-14T15:00:17.910Z,3.3557046979865772
2024-03-14T15:03:40.147Z,2.6711409395973154
2024-03-14T15:07:02.961Z,3.5167785234899327
2024-03-14T15:10:26.947Z,3.0671140939597317
2024-03-14T15:13:49.453Z,3.2751677852348995
2024-03-14T15:17:13.104Z,2.38255033557047
2024-03-14T15:20:39.189Z,4.322147651006712
2024-03-14T15:24:05.136Z,4.201342281879195
2024-03-14T15:27:31.267Z,3.248322147651007
2024-03-14T15:30:56.940Z,2.4093959731543624
2024-03-14T15:35:50.787Z,4.0
2024-03-14T15:39:22.604Z,3.12751677852349
2024-03-14T15:42:49.775Z,3.5033557046979866
2024-03-14T15:46:22.057Z,4.577181208053691
2024-03-14T15:49:49.624Z,5.073825503355705
2024-03-14T15:53:14.200Z,5.429530201342282
2024-03-14T15:56:40.917Z,5.9865771812080535
2024-03-14T16:00:04.378Z,7.302013422818792
2024-03-14T16:03:29.365Z,4.476510067114094
2024-03-14T16:06:54.472Z,5.281879194630872
2024-03-14T16:10:17.673Z,3.033557046979866
2024-03-14T16:13:42.321Z,6.436241610738255
2024-03-14T16:17:05.966Z,6.9865771812080535
2024-03-14T16:22:44.916Z,5.369127516778524
2024-03-14T16:26:23.630Z,7.758389261744966
2024-03-14T16:38:24.144Z,7.275167785234899
2024-03-14T16:50:21.317Z,6.456375838926174
2024-03-14T16:53:44.201Z,7.677852348993288
2024-03-14T16:57:07.447Z,7.691275167785235
2024-03-14T17:00:31.589Z,8.906040268456376
2024-03-14T17:03:53.787Z,9.194630872483222
2024-03-14T17:07:19.274Z,11.604026845637584
2024-03-14T17:10:40.558Z,11.61744966442953
2024-03-14T17:15:57.060Z,9.026845637583893
2024-03-14T17:19:41.396Z,6.093959731543624
2024-03-14T17:23:09.740Z,5.281879194630872
2024-03-14T17:26:33.372Z,4.510067114093959
2024-03-14T17:29:56.516Z,5.74496644295302
2024-03-14T17:34:02.470Z,7.845637583892618
2024-03-14T17:37:40.289Z,5.671140939597316
2024-03-14T17:41:01.716Z,7.208053691275167
2024-03-14T17:47:02.317Z,6.342281879194631
2024-03-14T17:50:23.537Z,8.583892617449665
2024-03-14T17:53:45.834Z,9.583892617449665
2024-03-14T18:00:25.134Z,9.120805369127517
2024-03-14T18:06:06.984Z,7.134228187919463
2024-03-14T18:11:03.307Z,9.21476510067114
2024-03-14T18:14:26.035Z,9.711409395973154
2024-03-14T18:17:46.357Z,6.006711409395973
2024-03-14T18:21:07.759Z,7.315436241610739
2024-03-14T18:24:31.278Z,10.013422818791947
2024-03-14T18:27:53.292Z,10.120805369127517
2024-03-14T18:34:33.315Z,5.228187919463087
2024-03-14T18:37:55.781Z,9.04026845637584
2024-03-14T18:41:17.348Z,9.798657718120806
2024-03-14T18:44:38.036Z,10.85234899328859
2024-03-14T18:48:01.656Z,7.570469798657718
2024-03-14T18:51:24.080Z,5.798657718120805
2024-03-14T18:54:49.491Z,12.21476510067114
2024-03-14T18:58:10.781Z,10.10738255033557
2024-03-14T19:04:32.191Z,8.14765100671141
2024-03-14T19:07:53.546Z,8.208053691275168
2024-03-14T19:11:14.618Z,5.966442953020135
2024-03-14T19:14:36.349Z,5.879194630872483
2024-03-14T19:17:58.717Z,8.463087248322148
2024-03-14T19:21:19.644Z,7.214765100671141
2024-03-14T19:24:43.548Z,5.604026845637584
2024-03-14T19:28:06.021Z,7.583892617449664
2024-03-14T19:31:28.238Z,5.416107382550336
2024-03-14T19:34:51.385Z,6.939597315436242
2024-03-14T19:38:13.460Z,4.6644295302013425
2024-03-14T19:46:06.441Z,8.187919463087248
2024-03-14T19:58:07.905Z,4.120805369127517
2024-03-14T20:10:02.155Z,6.778523489932886
2024-03-14T20:13:23.825Z,4.23489932885906
2024-03-14T20:16:44.365Z,6.281879194630872
2024-03-14T20:20:05.457Z,8.993288590604028
2024-03-14T20:23:27.250Z,6.805369127516778
2024-03-14T20:26:48.530Z,7.2885906040268456
2024-03-14T20:30:10.072Z,5.147651006711409
2024-03-14T20:33:31.007Z,5.10738255033557
2024-03-14T20:36:51.757Z,8.449664429530202
2024-03-14T20:45:05.934Z,4.610738255033557
2024-03-14T20:48:28.755Z,7.718120805369128
2024-03-14T20:55:03.725Z,4.489932885906041
2024-03-14T20:59:23.035Z,5.590604026845638
2024-03-14T21:04:50.749Z,4.0
2024-03-14T21:08:11.804Z,4.87248322147651
2024-03-14T21:11:32.976Z,4.8120805369127515
2024-03-14T21:14:54.356Z,4.134228187919463
2024-03-14T21:18:14.421Z,5.758389261744966
2024-03-14T21:26:09.951Z,5.697986577181208
2024-03-14T21:29:30.960Z,4.993288590604027
2024-03-14T21:32:52.273Z,8.087248322147651
2024-03-14T21:36:12.391Z,4.906040268456376
2024-03-14T21:39:53.967Z,4.845637583892618
2024-03-14T21:43:15.141Z,6.221476510067114
2024-03-14T21:46:38.194Z,5.9865771812080535
2024-03-14T21:49:59.657Z,7.208053691275167
2024-03-14T21:53:24.842Z,6.590604026845638
2024-03-14T22:07:06.920Z,5.563758389261745
2024-03-14T22:10:29.188Z,6.073825503355705
2024-03-14T22:13:52.382Z,5.4630872483221475
2024-03-14T22:17:14.056Z,5.248322147651007
2024-03-14T22:20:35.875Z,2.9731543624161074
2024-03-14T22:23:57.999Z,6.295302013422819
2024-03-14T22:27:21.223Z,4.046979865771812
2024-03-14T22:30:50.342Z,5.382550335570469
2024-03-14T22:34:19.475Z,5.563758389261745
2024-03-14T22:37:45.946Z,3.9798657718120807
2024-03-14T22:41:10.385Z,6.147651006711409
2024-03-14T22:44:34.099Z,5.543624161073826
2024-03-14T22:48:17.030Z,9.348993288590604
2024-03-14T22:55:58.814Z,5.114093959731544
2024-03-14T22:59:20.910Z,5.248322147651007
2024-03-14T23:02:43.449Z,6.791946308724833
2024-03-14T23:06:04.820Z,5.859060402684563
2024-03-14T23:09:27.801Z,5.046979865771812
2024-03-14T23:12:49.300Z,4.496644295302014
2024-03-14T23:16:16.963Z,8.731543624161073
2024-03-14T23:19:41.451Z,5.751677852348993
2024-03-14T23:23:04.588Z,5.3355704697986575
2024-03-14T23:26:33.573Z,8.053691275167786
2024-03-14T23:31:42.169Z,3.6711409395973154
2024-03-14T23:35:03.669Z,6.597315436241611
2024-03-14T23:40:57.545Z,6.268456375838926
2024-03-14T23:44:19.039Z,7.080536912751678
2024-03-14T23:47:40.791Z,7.2885906040268456
2024-03-14T23:52:16.718Z,7.785234899328859
2024-03-14T23:55:38.419Z,3.208053691275168
2024-03-14T23:58:58.293Z,4.557046979865772
